createdAt,value
2024-01-15T00:01:09.527Z,44.70
2024-01-15T00:03:37.722Z,44.70
2024-01-15T00:06:06.534Z,45.40
2024-01-15T00:08:34.680Z,44.20
2024-01-15T00:11:02.770Z,43.20
2024-01-15T00:13:32.482Z,45.40
2024-01-15T00:16:00.622Z,45.60
2024-01-15T00:18:28.855Z,43.60
2024-01-15T00:20:57.446Z,43.80
2024-01-15T00:23:25.614Z,43.50
2024-01-15T00:25:53.882Z,44.00
2024-01-15T00:28:21.956Z,45.40
2024-01-15T00:30:51.483Z,44.10
2024-01-15T00:33:19.885Z,44.50
2024-01-15T00:35:48.198Z,45.00
2024-01-15T00:38:16.294Z,45.50
2024-01-15T00:40:44.417Z,44.80
2024-01-15T00:43:12.558Z,44.50
2024-01-15T00:45:40.749Z,44.50
2024-01-15T00:48:10.622Z,46.50
2024-01-15T00:50:38.834Z,43.30
2024-01-15T00:53:06.985Z,45.30
2024-01-15T00:55:35.110Z,43.60
2024-01-15T00:58:03.204Z,45.00
2024-01-15T01:00:31.478Z,43.30
2024-01-15T01:02:59.809Z,43.70
2024-01-15T01:05:29.313Z,45.70
2024-01-15T01:07:57.525Z,43.90
2024-01-15T01:10:25.640Z,45.40
2024-01-15T01:12:53.767Z,45.80
2024-01-15T01:15:22.565Z,46.60
2024-01-15T01:17:50.954Z,46.30
2024-01-15T01:20:19.699Z,46.90
2024-01-15T01:22:49.344Z,45.80
2024-01-15T01:25:17.841Z,46.00
2024-01-15T01:27:46.152Z,48.20
2024-01-15T01:30:14.500Z,47.20
2024-01-15T01:32:42.700Z,47.50
2024-01-15T01:35:11.009Z,45.80
2024-01-15T01:37:39.107Z,46.30
2024-01-15T01:40:10.302Z,48.30
2024-01-15T01:42:38.409Z,47.30
2024-01-15T01:45:07.631Z,48.50
2024-01-15T01:47:35.914Z,48.10
2024-01-15T01:50:04.810Z,47.90
2024-01-15T01:52:33.459Z,48.80
2024-01-15T01:55:03.055Z,48.30
2024-01-15T01:57:33.668Z,48.50
2024-01-15T02:00:02.393Z,49.00
2024-01-15T02:02:30.712Z,48.30
2024-01-15T02:04:59.042Z,49.80
2024-01-15T02:07:27.656Z,50.10
2024-01-15T02:09:55.851Z,49.10
2024-01-15T02:12:24.600Z,48.30
2024-01-15T02:14:54.084Z,49.50
2024-01-15T02:17:22.179Z,49.20
2024-01-15T02:19:50.413Z,47.80
2024-01-15T02:22:18.607Z,48.30
2024-01-15T02:24:48.264Z,48.20
2024-01-15T02:27:16.697Z,48.20
2024-01-15T02:29:45.136Z,49.70
2024-01-15T02:32:13.408Z,49.80
2024-01-15T02:34:41.610Z,50.40
2024-01-15T02:37:09.773Z,50.30
2024-01-15T02:39:38.080Z,48.50
2024-01-15T02:42:08.254Z,50.00
2024-01-15T02:44:36.482Z,49.00
2024-01-15T02:47:04.713Z,50.50
2024-01-15T02:49:33.692Z,50.40
2024-01-15T02:52:01.967Z,50.90
2024-01-15T02:54:30.169Z,49.40
2024-01-15T02:56:58.301Z,49.50
2024-01-15T02:59:27.770Z,50.00
2024-01-15T03:01:55.858Z,51.80
2024-01-15T03:04:24.075Z,51.50
2024-01-15T03:06:52.325Z,51.80
2024-01-15T03:09:20.512Z,50.80
2024-01-15T03:11:49.764Z,51.20
2024-01-15T03:14:17.848Z,51.10
2024-01-15T03:16:47.303Z,51.00
2024-01-15T03:19:15.561Z,51.30
2024-01-15T03:21:43.771Z,51.60
2024-01-15T03:24:11.916Z,51.80
2024-01-15T03:26:40.038Z,51.70
2024-01-15T03:29:08.340Z,51.50
2024-01-15T03:31:36.594Z,52.60
2024-01-15T03:34:06.212Z,52.40
2024-01-15T03:36:34.487Z,53.50
2024-01-15T03:39:02.748Z,52.30
2024-01-15T03:41:30.861Z,52.30
2024-01-15T03:44:00.213Z,55.80
2024-01-15T03:46:28.391Z,53.00
2024-01-15T03:48:56.549Z,53.70
2024-01-15T03:51:26.183Z,54.60
2024-01-15T03:53:54.344Z,57.60
2024-01-15T03:56:22.444Z,56.90
2024-01-15T03:58:50.534Z,56.90
2024-01-15T04:01:18.722Z,56.90
2024-01-15T04:03:46.911Z,57.70
2024-01-15T04:06:15.277Z,55.60
2024-01-15T04:08:44.800Z,57.20
2024-01-15T04:11:12.865Z,55.20
2024-01-15T04:13:42.738Z,57.10
2024-01-15T04:16:11.026Z,56.40
2024-01-15T04:18:39.199Z,56.00
2024-01-15T04:21:07.929Z,55.80
2024-01-15T04:23:36.183Z,55.50
2024-01-15T04:26:05.764Z,55.30
2024-01-15T04:28:34.006Z,55.90
2024-01-15T04:31:02.279Z,56.00
2024-01-15T04:33:30.772Z,55.80
2024-01-15T04:35:58.939Z,53.80
2024-01-15T04:38:26.981Z,53.80
2024-01-15T04:40:57.622Z,55.40
2024-01-15T04:43:27.886Z,53.10
2024-01-15T04:45:56.485Z,55.00
2024-01-15T04:48:25.029Z,54.50
2024-01-15T04:50:53.200Z,53.50
2024-01-15T04:53:21.305Z,54.70
2024-01-15T04:55:49.398Z,53.80
2024-01-15T04:58:17.565Z,53.30
2024-01-15T05:00:47.110Z,54.00
2024-01-15T05:03:15.372Z,55.20
2024-01-15T05:05:43.491Z,54.60
2024-01-15T05:08:11.538Z,55.00
2024-01-15T05:10:39.811Z,54.00
2024-01-15T05:13:07.867Z,54.50
2024-01-15T05:18:06.085Z,64.90
2024-01-15T05:20:34.278Z,64.30
2024-01-15T05:23:02.499Z,64.30
2024-01-15T05:25:30.674Z,62.20
2024-01-15T05:27:58.895Z,62.00
2024-01-15T05:30:27.091Z,60.90
2024-01-15T05:32:55.410Z,61.10
2024-01-15T05:35:24.907Z,60.50
2024-01-15T05:37:52.975Z,60.60
2024-01-15T05:40:21.041Z,60.90
2024-01-15T05:42:49.333Z,61.30
2024-01-15T05:45:17.822Z,61.10
2024-01-15T05:47:46.005Z,61.20
2024-01-15T05:50:14.237Z,62.60
2024-01-15T05:52:43.761Z,62.00
2024-01-15T05:55:12.038Z,63.60
2024-01-15T05:57:40.158Z,62.30
2024-01-15T06:00:10.088Z,62.60
2024-01-15T06:02:39.889Z,63.30
2024-01-15T06:05:08.702Z,66.60
2024-01-15T06:07:37.535Z,66.70
2024-01-15T06:10:08.160Z,66.10
2024-01-15T06:12:36.379Z,66.10
2024-01-15T06:15:05.006Z,66.40
2024-01-15T06:17:34.229Z,65.70
2024-01-15T06:20:02.482Z,63.70
2024-01-15T06:22:30.612Z,65.00
2024-01-15T06:24:58.825Z,67.30
2024-01-15T06:27:28.490Z,66.90
2024-01-15T06:29:57.383Z,65.40
2024-01-15T06:32:25.645Z,64.40
2024-01-15T06:34:53.833Z,66.60
2024-01-15T06:37:21.977Z,65.90
2024-01-15T06:39:50.366Z,65.50
2024-01-15T06:42:18.642Z,64.50
2024-01-15T06:44:48.170Z,65.20
2024-01-15T06:47:16.233Z,66.50
2024-01-15T06:49:44.510Z,66.40
2024-01-15T06:52:13.836Z,65.80
2024-01-15T06:54:41.955Z,64.40
2024-01-15T06:57:10.135Z,64.30
2024-01-15T06:59:38.296Z,62.40
2024-01-15T07:02:07.970Z,62.60
2024-01-15T07:04:36.138Z,63.40
2024-01-15T07:07:04.292Z,61.50
2024-01-15T07:09:32.522Z,59.70
2024-01-15T07:12:00.746Z,60.10
2024-01-15T07:14:28.890Z,60.50
2024-01-15T07:16:57.061Z,58.80
2024-01-15T07:19:26.696Z,56.00
2024-01-15T07:21:56.935Z,55.80
2024-01-15T07:24:25.644Z,56.60
2024-01-15T07:26:53.841Z,56.80
2024-01-15T07:29:22.015Z,56.80
2024-01-15T07:31:51.754Z,55.20
2024-01-15T07:34:20.413Z,54.50
2024-01-15T07:36:50.106Z,55.70
2024-01-15T07:39:18.336Z,53.70
2024-01-15T07:41:46.473Z,54.40
2024-01-15T07:44:14.711Z,54.90
2024-01-15T07:46:45.968Z,54.30
2024-01-15T07:49:14.386Z,53.90
2024-01-15T07:51:44.793Z,53.80
2024-01-15T07:54:14.354Z,53.40
2024-01-15T07:56:56.335Z,52.70
2024-01-15T07:59:24.585Z,51.90
2024-01-15T08:01:52.805Z,51.30
2024-01-15T08:04:21.429Z,52.60
2024-01-15T08:06:49.814Z,52.00
2024-01-15T08:09:19.524Z,51.10
2024-01-15T08:11:47.796Z,50.90
2024-01-15T08:14:16.080Z,50.50
2024-01-15T08:16:45.005Z,51.30
2024-01-15T08:19:13.604Z,49.00
2024-01-15T08:21:41.805Z,48.30
2024-01-15T08:24:10.310Z,49.70
2024-01-15T08:26:39.857Z,48.70
2024-01-15T08:29:07.989Z,48.40
2024-01-15T08:31:36.462Z,48.00
2024-01-15T08:34:04.851Z,49.40
2024-01-15T08:36:33.020Z,47.30
2024-01-15T08:39:01.211Z,49.90
2024-01-15T08:41:29.340Z,47.70
2024-01-15T08:43:58.780Z,47.40
2024-01-15T08:46:26.994Z,48.20
2024-01-15T08:48:55.140Z,48.00
2024-01-15T08:51:23.479Z,48.40
2024-01-15T08:53:51.614Z,47.60
2024-01-15T08:56:19.741Z,48.70
2024-01-15T08:58:47.843Z,47.40
2024-01-15T09:01:17.815Z,46.40
2024-01-15T09:03:46.148Z,47.60
2024-01-15T09:06:14.350Z,47.40
2024-01-15T09:08:42.503Z,45.40
2024-01-15T09:11:10.766Z,46.80
2024-01-15T09:13:38.890Z,46.80
2024-01-15T09:16:07.198Z,45.90
2024-01-15T09:18:36.834Z,46.60
2024-01-15T09:21:06.274Z,45.70
2024-01-15T09:23:34.442Z,45.80
2024-01-15T09:26:02.531Z,44.50
2024-01-15T09:28:30.577Z,43.50
2024-01-15T09:30:58.915Z,42.30
2024-01-15T09:33:27.288Z,44.20
2024-01-15T09:35:56.927Z,43.50
2024-01-15T09:38:25.063Z,44.40
2024-01-15T09:40:53.814Z,43.10
2024-01-15T09:43:25.012Z,44.20
2024-01-15T09:45:54.872Z,43.80
2024-01-15T09:48:23.334Z,43.80
2024-01-15T09:50:52.435Z,43.40
2024-01-15T09:53:22.722Z,42.70
2024-01-15T09:55:52.524Z,42.30
2024-01-15T09:58:21.134Z,41.70
2024-01-15T10:00:51.534Z,42.60
2024-01-15T10:03:19.869Z,42.00
2024-01-15T10:05:48.307Z,41.00
2024-01-15T10:08:16.885Z,40.20
2024-01-15T10:10:46.394Z,41.80
2024-01-15T10:13:15.670Z,41.40
2024-01-15T10:15:44.323Z,42.00
2024-01-15T10:18:12.590Z,41.10
2024-01-15T10:20:41.571Z,41.60
2024-01-15T10:23:09.791Z,42.10
2024-01-15T10:25:38.344Z,41.40
2024-01-15T10:28:08.197Z,41.80
2024-01-15T10:30:36.510Z,42.20
2024-01-15T10:33:06.816Z,41.90
2024-01-15T10:35:36.557Z,41.90
2024-01-15T10:38:05.578Z,41.80
2024-01-15T10:40:34.142Z,42.60
2024-01-15T10:43:02.355Z,42.10
2024-01-15T10:45:31.933Z,42.50
2024-01-15T10:48:01.663Z,42.60
2024-01-15T10:50:31.680Z,42.40
2024-01-15T10:53:00.170Z,42.50
2024-01-15T10:55:29.066Z,42.70
2024-01-15T10:57:57.844Z,43.60
2024-01-15T11:00:26.509Z,43.50
2024-01-15T11:02:57.141Z,43.80
2024-01-15T11:05:25.483Z,43.60
2024-01-15T11:07:57.242Z,42.40
2024-01-15T11:10:42.197Z,43.50
2024-01-15T11:13:16.918Z,43.70
2024-01-15T11:16:01.751Z,43.30
2024-01-15T11:18:34.824Z,43.80
2024-01-15T11:21:31.917Z,45.20
2024-01-15T11:24:01.134Z,45.00
2024-01-15T11:26:34.336Z,44.60
2024-01-15T11:29:04.559Z,45.70
2024-01-15T11:32:00.880Z,45.70
2024-01-15T11:34:55.755Z,44.50
2024-01-15T11:37:25.075Z,45.20
2024-01-15T11:39:55.321Z,45.40
2024-01-15T11:42:24.953Z,45.30
2024-01-15T11:44:53.328Z,45.80
2024-01-15T11:47:55.587Z,46.50
2024-01-15T11:50:24.064Z,45.40
2024-01-15T11:53:02.827Z,46.90
2024-01-15T11:55:36.562Z,46.40
2024-01-15T11:58:08.828Z,47.20
2024-01-15T12:00:37.078Z,47.70
2024-01-15T12:03:07.606Z,50.90
2024-01-15T12:05:40.098Z,52.90
2024-01-15T12:08:11.737Z,54.10
2024-01-15T12:10:42.204Z,56.40
2024-01-15T12:13:13.764Z,59.10
2024-01-15T12:15:43.327Z,62.30
2024-01-15T12:18:15.329Z,66.10
2024-01-15T12:20:44.879Z,66.60
2024-01-15T12:23:14.464Z,67.60
2024-01-15T12:25:43.068Z,67.80
2024-01-15T12:28:11.415Z,67.30
2024-01-15T12:30:39.788Z,69.30
2024-01-15T12:33:09.081Z,68.30
2024-01-15T12:35:39.949Z,69.20
2024-01-15T12:38:08.207Z,69.10
2024-01-15T12:40:37.587Z,70.40
2024-01-15T12:43:08.245Z,73.80
2024-01-15T12:45:38.954Z,72.50
2024-01-15T12:48:08.342Z,74.40
2024-01-15T12:50:37.030Z,75.00
2024-01-15T12:53:06.818Z,78.40
2024-01-15T12:55:35.749Z,79.60
2024-01-15T12:58:03.984Z,82.90
2024-01-15T13:00:32.132Z,81.30
2024-01-15T13:03:01.884Z,82.30
2024-01-15T13:05:31.420Z,82.00
2024-01-15T13:08:00.506Z,82.70
2024-01-15T13:10:31.512Z,85.00
2024-01-15T13:12:59.838Z,86.40
2024-01-15T13:15:28.024Z,87.50
2024-01-15T13:17:57.270Z,87.60
2024-01-15T13:20:25.516Z,88.60
2024-01-15T13:22:53.710Z,87.50
2024-01-15T13:25:21.921Z,86.90
2024-01-15T13:27:51.495Z,84.10
2024-01-15T13:30:19.904Z,86.30
2024-01-15T13:32:48.227Z,87.30
2024-01-15T13:35:16.742Z,88.70
2024-01-15T13:37:44.926Z,88.70
2024-01-15T13:40:18.141Z,87.20
2024-01-15T13:42:47.634Z,89.50
2024-01-15T13:45:17.602Z,90.00
2024-01-15T13:47:46.133Z,89.00
2024-01-15T13:50:15.031Z,89.20
2024-01-15T13:52:43.483Z,89.00
2024-01-15T13:55:11.665Z,89.50
2024-01-15T13:57:40.065Z,89.60
2024-01-15T14:00:12.936Z,89.40
2024-01-15T14:02:43.822Z,88.00
2024-01-15T14:05:14.001Z,86.90
2024-01-15T14:07:42.749Z,88.70
2024-01-15T14:10:12.144Z,89.30
2024-01-15T14:12:41.011Z,90.30
2024-01-15T14:15:10.283Z,90.80
2024-01-15T14:17:39.476Z,90.40
2024-01-15T14:20:11.301Z,90.70
2024-01-15T14:22:39.581Z,89.90
2024-01-15T14:25:08.096Z,90.40
2024-01-15T14:27:36.257Z,88.20
2024-01-15T14:30:06.902Z,86.60
2024-01-15T14:32:38.455Z,88.60
2024-01-15T14:35:09.648Z,89.40
2024-01-15T14:37:37.790Z,88.90
2024-01-15T14:40:07.907Z,90.00
2024-01-15T14:42:36.085Z,90.30
2024-01-15T14:45:04.334Z,89.70
2024-01-15T14:47:34.151Z,90.70
2024-01-15T14:50:02.291Z,90.50
2024-01-15T14:52:31.769Z,91.10
2024-01-15T14:54:59.994Z,91.00
2024-01-15T14:57:28.231Z,92.20
2024-01-15T14:59:56.631Z,93.00
2024-01-15T15:02:30.355Z,92.60
2024-01-15T15:05:00.045Z,94.20
2024-01-15T15:07:28.276Z,94.50
2024-01-15T15:09:57.939Z,93.90
2024-01-15T15:12:26.207Z,92.60
2024-01-15T15:15:03.253Z,92.70
2024-01-15T15:17:36.898Z,92.80
2024-01-15T15:20:06.426Z,93.50
2024-01-15T15:22:34.745Z,92.00
2024-01-15T15:25:04.358Z,92.00
2024-01-15T15:27:32.476Z,86.80
2024-01-15T15:30:00.633Z,84.20
2024-01-15T15:32:29.451Z,85.40
2024-01-15T15:34:57.708Z,81.80
2024-01-15T15:37:26.114Z,80.40
2024-01-15T15:39:54.375Z,79.10
2024-01-15T15:42:25.215Z,71.80
2024-01-15T15:44:58.063Z,70.90
2024-01-15T15:47:27.150Z,71.70
2024-01-15T15:49:55.385Z,70.50
2024-01-15T15:52:23.724Z,70.00
2024-01-15T15:54:51.988Z,68.80
2024-01-15T15:57:20.151Z,65.80
2024-01-15T15:59:49.686Z,63.90
2024-01-15T16:02:17.847Z,63.40
2024-01-15T16:04:46.075Z,65.70
2024-01-15T16:07:15.540Z,62.60
2024-01-15T16:09:43.693Z,61.70
2024-01-15T16:12:13.138Z,60.50
2024-01-15T16:28:12.237Z,71.80
2024-01-15T16:30:45.350Z,70.30
2024-01-15T16:33:17.173Z,69.70
2024-01-15T16:35:45.465Z,71.40
2024-01-15T16:38:13.956Z,68.00
2024-01-15T16:40:42.108Z,70.20
2024-01-15T16:43:10.419Z,70.30
2024-01-15T16:45:38.824Z,72.00
2024-01-15T16:48:08.270Z,70.80
2024-01-15T16:50:38.230Z,70.00
2024-01-15T16:53:06.938Z,69.50
2024-01-15T16:55:35.221Z,68.60
2024-01-15T16:58:03.328Z,69.20
2024-01-15T17:00:31.447Z,69.40
2024-01-15T17:02:59.572Z,69.00
2024-01-15T17:05:28.374Z,68.80
2024-01-15T17:07:57.967Z,69.70
2024-01-15T17:10:26.096Z,70.40
2024-01-15T17:12:54.258Z,68.50
2024-01-15T17:15:22.540Z,68.80
2024-01-15T17:17:50.808Z,68.70
2024-01-15T17:20:19.035Z,68.70
2024-01-15T17:25:17.029Z,69.60
2024-01-15T17:27:45.151Z,69.00
2024-01-15T17:30:13.566Z,69.50
2024-01-15T17:32:41.738Z,69.90
2024-01-15T17:35:10.600Z,70.00
2024-01-15T17:37:38.873Z,70.40
2024-01-15T17:40:08.580Z,71.20
2024-01-15T17:42:38.064Z,71.60
2024-01-15T17:45:07.721Z,73.20
2024-01-15T17:47:35.969Z,73.10
2024-01-15T17:50:05.304Z,73.30
2024-01-15T17:52:33.453Z,74.40
2024-01-15T17:55:01.616Z,74.00
2024-01-15T17:57:30.081Z,74.70
2024-01-15T17:59:59.566Z,73.30
2024-01-15T18:02:27.702Z,74.60
2024-01-15T18:04:55.809Z,74.40
2024-01-15T18:07:24.162Z,74.20
2024-01-15T18:09:52.256Z,74.00
2024-01-15T18:12:20.355Z,72.70
2024-01-15T18:14:48.463Z,73.00
2024-01-15T18:17:18.481Z,71.50
2024-01-15T18:19:46.576Z,70.50
2024-01-15T18:22:16.450Z,70.70
2024-01-15T18:24:44.664Z,71.10
2024-01-15T18:27:12.856Z,71.00
2024-01-15T18:29:41.012Z,69.70
2024-01-15T18:32:09.382Z,68.00
2024-01-15T18:34:39.118Z,69.10
2024-01-15T18:37:07.388Z,68.40
2024-01-15T18:39:35.511Z,66.90
2024-01-15T18:42:03.649Z,66.40
2024-01-15T18:44:31.771Z,65.90
2024-01-15T18:47:00.007Z,65.80
2024-01-15T18:49:28.336Z,64.70
2024-01-15T18:51:57.909Z,63.80
2024-01-15T18:54:26.023Z,65.20
2024-01-15T18:56:54.124Z,64.70
2024-01-15T18:59:22.268Z,64.00
2024-01-15T19:01:51.227Z,64.20
2024-01-15T19:04:19.469Z,62.20
2024-01-15T19:06:49.499Z,61.90
2024-01-15T19:09:20.250Z,62.80
2024-01-15T19:11:48.519Z,61.90
2024-01-15T19:14:16.678Z,62.30
2024-01-15T19:16:44.948Z,63.00
2024-01-15T19:19:13.307Z,60.90
2024-01-15T19:21:41.479Z,60.70
2024-01-15T19:24:09.610Z,61.20
2024-01-15T19:26:39.049Z,61.30
2024-01-15T19:29:09.102Z,60.90
2024-01-15T19:31:37.542Z,60.80
2024-01-15T19:34:06.519Z,59.90
2024-01-15T19:36:34.693Z,61.60
2024-01-15T19:39:03.625Z,60.50
2024-01-15T19:41:33.171Z,60.00
2024-01-15T19:44:02.751Z,59.50
2024-01-15T19:46:30.920Z,59.80
2024-01-15T19:48:59.037Z,60.20
2024-01-15T19:51:27.273Z,60.10
2024-01-15T19:53:55.358Z,60.80
2024-01-15T19:56:23.535Z,61.60
2024-01-15T19:58:51.739Z,62.50
2024-01-15T20:01:21.493Z,62.40
2024-01-15T20:03:49.691Z,61.50
2024-01-15T20:06:19.818Z,61.60
2024-01-15T20:08:48.038Z,62.80
2024-01-15T20:11:17.787Z,63.30
2024-01-15T20:13:46.203Z,63.00
2024-01-15T20:16:15.309Z,63.30
2024-01-15T20:18:45.194Z,63.80
2024-01-15T20:21:13.496Z,63.90
2024-01-15T20:23:50.794Z,62.50
2024-01-15T20:26:24.334Z,61.90
2024-01-15T20:28:52.629Z,63.90
2024-01-15T20:31:20.838Z,61.80
2024-01-15T20:33:50.621Z,61.20
2024-01-15T20:36:18.785Z,60.80
2024-01-15T20:38:47.205Z,61.50
2024-01-15T20:41:17.170Z,63.80
2024-01-15T20:43:45.668Z,63.20
2024-01-15T20:46:13.817Z,63.20
2024-01-15T20:48:42.354Z,61.40
2024-01-15T20:51:12.925Z,61.50
2024-01-15T20:53:43.085Z,63.80
2024-01-15T20:56:11.744Z,63.10
2024-01-15T20:58:40.114Z,61.80
2024-01-15T21:01:08.959Z,60.10
2024-01-15T21:03:37.334Z,60.40
2024-01-15T21:06:06.207Z,60.00
2024-01-15T21:08:35.940Z,58.80
2024-01-15T21:11:05.107Z,59.60
2024-01-15T21:13:34.505Z,60.20
2024-01-15T21:16:03.165Z,61.00
2024-01-15T21:18:31.480Z,61.10
2024-01-15T21:20:59.845Z,59.30
2024-01-15T21:23:29.228Z,59.80
2024-01-15T21:25:58.897Z,60.40
2024-01-15T21:28:27.083Z,60.30
2024-01-15T21:30:56.137Z,57.50
2024-01-15T21:33:24.572Z,58.70
2024-01-15T21:35:52.674Z,58.60
2024-01-15T21:38:20.871Z,57.90
2024-01-15T21:40:49.026Z,58.80
2024-01-15T21:43:18.957Z,57.90
2024-01-15T21:45:47.111Z,57.50
2024-01-15T21:48:15.429Z,57.60
2024-01-15T21:50:43.954Z,57.70
2024-01-15T21:53:13.475Z,56.80
2024-01-15T21:55:41.715Z,58.00
2024-01-15T21:58:09.825Z,56.50
2024-01-15T22:00:39.621Z,58.00
2024-01-15T22:03:07.856Z,55.90
2024-01-15T22:05:36.088Z,56.10
2024-01-15T22:08:04.365Z,55.20
2024-01-15T22:10:32.490Z,54.50
2024-01-15T22:13:00.608Z,54.00
2024-01-15T22:15:28.929Z,55.30
2024-01-15T22:17:59.429Z,54.70
2024-01-15T22:20:27.748Z,55.30
2024-01-15T22:22:56.448Z,55.70
2024-01-15T22:25:24.546Z,56.20
2024-01-15T22:27:52.678Z,56.30
2024-01-15T22:30:20.814Z,57.50
2024-01-15T22:32:48.012Z,56.80
2024-01-15T22:35:17.724Z,56.80
2024-01-15T22:37:46.081Z,57.90
2024-01-15T22:40:16.935Z,57.40
2024-01-15T22:42:45.239Z,58.70
2024-01-15T22:45:16.636Z,58.50
2024-01-15T22:47:45.788Z,57.90
2024-01-15T22:50:14.398Z,58.20
2024-01-15T22:52:43.989Z,58.10
2024-01-15T22:55:13.270Z,57.50
2024-01-15T22:57:41.562Z,58.80
2024-01-15T23:00:16.114Z,59.10
2024-01-15T23:02:44.374Z,58.70
2024-01-15T23:05:12.657Z,57.90
2024-01-15T23:07:41.870Z,57.40
2024-01-15T23:10:11.728Z,57.80
2024-01-15T23:12:40.673Z,57.00
2024-01-15T23:15:09.654Z,57.30
2024-01-15T23:17:38.076Z,55.50
2024-01-15T23:20:07.518Z,55.70
2024-01-15T23:22:35.646Z,56.30
2024-01-15T23:25:04.244Z,57.20
2024-01-15T23:27:33.779Z,56.40
2024-01-15T23:30:01.924Z,57.60
2024-01-15T23:32:30.095Z,57.00
2024-01-15T23:34:59.089Z,54.70
2024-01-15T23:37:27.292Z,54.90
2024-01-15T23:39:55.615Z,57.30
2024-01-15T23:42:24.612Z,55.80
2024-01-15T23:44:54.013Z,55.80
2024-01-15T23:47:22.084Z,55.60
2024-01-15T23:49:50.214Z,56.50
2024-01-15T23:52:18.289Z,57.70
2024-01-15T23:54:46.372Z,56.10
2024-01-15T23:57:14.549Z,56.10
2024-01-15T23:59:42.830Z,55.60
